Time;durP1;ratioP1;P1;durP2;ratioP2;P2;SDS_P1;SDS_P2;PMS_P1;PMS_P2;Temp;Humidity;BMP_temperature;BMP_pressure;BME280_temperature;BME280_humidity;BME280_pressure;Samples;Min_cycle;Max_cycle;Signal;HPM_P1;HPM_P2
2023/06/11 00:00:28;;;;;;;6.88;6.03;;;;;;;19.48;54.44;101587.91;4993729;28;20500;-73
2023/06/11 00:02:56;;;;;;;7.15;5.82;;;;;;;19.43;55.33;101585.91;4977254;28;20054;-73
2023/06/11 00:05:24;;;;;;;9.10;5.80;;;;;;;19.40;55.29;101586.13;4994365;28;20538;-74
2023/06/11 00:07:51;;;;;;;6.97;6.03;;;;;;;19.36;55.67;101586.34;4993515;28;20063;-73
2023/06/11 00:10:18;;;;;;;7.53;5.40;;;;;;;19.32;56.77;101577.72;4994459;28;20047;-73
2023/06/11 00:12:44;;;;;;;9.20;6.10;;;;;;;19.24;56.61;101576.69;4994342;28;20043;-73
2023/06/11 00:15:11;;;;;;;6.90;6.00;;;;;;;19.20;56.78;101578.84;4976285;28;20086;-75
2023/06/11 00:17:38;;;;;;;8.00;5.88;;;;;;;19.18;58.21;101575.91;4994094;28;20504;-73
2023/06/11 00:20:11;;;;;;;6.45;5.85;;;;;;;19.11;57.53;101579.06;4994254;28;20050;-74
2023/06/11 00:22:42;;;;;;;6.10;5.60;;;;;;;19.11;57.76;101576.34;4993532;28;20047;-74
2023/06/11 00:25:10;;;;;;;5.90;5.40;;;;;;;19.04;58.27;101572.13;4994281;28;20058;-74
2023/06/11 00:27:38;;;;;;;6.68;5.53;;;;;;;18.98;58.17;101569.38;4993891;28;20388;-73
2023/06/11 00:30:06;;;;;;;6.95;6.20;;;;;;;18.95;59.17;101567.63;4994069;28;20520;-74
2023/06/11 00:32:34;;;;;;;9.38;5.45;;;;;;;18.91;59.55;101569.81;4993404;28;20050;-74
2023/06/11 00:35:06;;;;;;;15.38;6.82;;;;;;;18.85;59.34;101568.25;4993277;28;20141;-74
2023/06/11 00:37:34;;;;;;;7.00;5.70;;;;;;;18.82;58.95;101566.53;4993717;28;20050;-73
2023/06/11 00:40:01;;;;;;;6.88;6.20;;;;;;;18.75;58.97;101570.41;4976637;28;20061;-73
2023/06/11 00:42:27;;;;;;;6.82;6.18;;;;;;;18.70;58.14;101568.38;4993439;28;20051;-74
2023/06/11 00:44:54;;;;;;;13.60;6.30;;;;;;;18.65;58.87;101569.81;4976656;28;20126;-73
2023/06/11 00:47:21;;;;;;;10.95;5.97;;;;;;;18.61;59.15;101565.84;4960060;28;20147;-73
2023/06/11 00:49:48;;;;;;;9.07;6.55;;;;;;;18.55;59.60;101565.00;4993469;28;20043;-73
2023/06/11 00:52:15;;;;;;;9.25;6.30;;;;;;;18.52;59.90;101565.97;4993113;28;20047;-73
2023/06/11 00:54:42;;;;;;;9.68;6.45;;;;;;;18.48;60.61;101558.06;4975514;28;20062;-73
2023/06/11 00:57:09;;;;;;;8.68;5.78;;;;;;;18.44;60.20;101564.88;4993536;28;20487;-75
2023/06/11 00:59:37;;;;;;;7.32;6.13;;;;;;;18.38;60.56;101566.81;4993730;28;20122;-73
2023/06/11 01:02:17;;;;;;;7.15;6.55;;;;;;;18.35;60.73;101560.41;4993496;28;20055;-75
2023/06/11 01:04:51;;;;;;;6.63;5.78;;;;;;;18.29;60.81;101571.13;4975989;28;20051;-75
2023/06/11 01:07:18;;;;;;;7.78;6.00;;;;;;;18.25;61.24;101573.28;4975397;28;20477;-75
2023/06/11 01:09:45;;;;;;;6.93;6.22;;;;;;;18.22;61.73;101566.13;4976183;28;20067;-75
2023/06/11 01:12:12;;;;;;;8.18;6.50;;;;;;;18.17;62.42;101569.50;4993913;28;20055;-75
2023/06/11 01:14:40;;;;;;;9.25;6.53;;;;;;;18.13;62.24;101570.91;4993616;28;20046;-73
2023/06/11 01:17:15;;;;;;;7.07;6.45;;;;;;;18.11;62.29;101570.63;4975614;28;20050;-73
2023/06/11 01:19:54;;;;;;;7.07;6.22;;;;;;;18.00;61.77;101571.97;4975143;28;20105;-75
2023/06/11 01:22:33;;;;;;;7.07;6.40;;;;;;;17.96;62.44;101573.41;4993282;28;20491;-75
2023/06/11 01:25:21;;;;;;;8.13;6.00;;;;;;;17.93;62.43;101569.72;4976092;28;20581;-75
2023/06/11 01:28:08;;;;;;;7.45;6.70;;;;;;;17.88;62.70;101583.09;4975552;28;20047;-73
2023/06/11 01:30:41;;;;;;;7.30;6.60;;;;;;;17.81;63.16;101573.47;4975439;28;20050;-75
2023/06/11 01:33:08;;;;;;;8.23;6.90;;;;;;;17.77;63.22;101572.16;4992823;28;20061;-75
2023/06/11 01:35:40;;;;;;;7.32;6.53;;;;;;;17.75;62.90;101577.28;4974804;28;20086;-75
2023/06/11 01:38:08;;;;;;;6.90;6.40;;;;;;;17.70;63.68;101570.59;4975102;28;20051;-73
2023/06/11 01:40:39;;;;;;;7.45;6.85;;;;;;;17.65;63.49;101576.66;4991829;28;20506;-73
2023/06/11 01:43:07;;;;;;;7.78;6.90;;;;;;;17.61;63.44;101576.81;4991259;28;20051;-74
2023/06/11 01:45:36;;;;;;;6.78;6.18;;;;;;;17.58;64.34;101580.47;4993033;28;20046;-73
2023/06/11 01:48:06;;;;;;;8.00;6.35;;;;;;;17.56;64.76;101579.44;4992287;28;20113;-73
2023/06/11 01:50:35;;;;;;;7.53;6.88;;;;;;;17.54;64.41;101571.09;4974870;28;20053;-74
2023/06/11 01:53:01;;;;;;;7.30;6.65;;;;;;;17.52;64.88;101576.22;4975013;28;20062;-73
2023/06/11 01:55:28;;;;;;;7.15;6.55;;;;;;;17.49;64.74;101563.69;4974884;28;20068;-74
2023/06/11 01:57:55;;;;;;;7.85;7.00;;;;;;;17.45;65.34;101574.63;4975171;28;20047;-74
2023/06/11 02:00:22;;;;;;;7.78;6.70;;;;;;;17.39;66.02;101563.03;4974868;28;20066;-74
2023/06/11 02:02:49;;;;;;;7.38;6.47;;;;;;;17.38;65.36;101566.19;4992675;28;20125;-74
2023/06/11 02:05:17;;;;;;;7.88;7.13;;;;;;;17.32;66.45;101569.53;4974698;28;20141;-74
2023/06/11 02:07:45;;;;;;;14.02;7.60;;;;;;;17.28;65.89;101568.25;4990743;28;20051;-74
2023/06/11 02:10:12;;;;;;;10.48;7.13;;;;;;;17.26;66.61;101570.66;4974901;28;20046;-73
2023/06/11 02:12:38;;;;;;;7.60;6.93;;;;;;;17.23;66.48;101564.25;4992777;28;20162;-74
2023/06/11 02:15:06;;;;;;;10.57;7.45;;;;;;;17.17;67.01;101560.03;4992528;28;20070;-74
2023/06/11 02:17:33;;;;;;;11.52;7.35;;;;;;;17.16;67.41;101569.28;4990422;28;20109;-74
2023/06/11 02:20:00;;;;;;;8.60;7.38;;;;;;;17.11;67.42;101570.69;4992962;28;20074;-74
2023/06/11 02:22:26;;;;;;;10.25;7.88;;;;;;;17.08;68.11;101570.88;4992429;28;20078;-73
2023/06/11 02:24:53;;;;;;;8.18;7.47;;;;;;;17.03;68.04;101564.19;4992756;28;20135;-73
2023/06/11 02:27:20;;;;;;;9.38;7.70;;;;;;;17.02;67.81;101561.97;4991306;28;20051;-73
2023/06/11 02:29:47;;;;;;;11.23;7.47;;;;;;;16.97;68.73;101560.66;4990981;28;20486;-74
2023/06/11 02:32:15;;;;;;;8.52;7.72;;;;;;;16.94;68.46;101556.94;4991899;28;20122;-74
2023/06/11 02:34:42;;;;;;;8.02;7.22;;;;;;;16.94;68.34;101556.22;4991904;28;20055;-74
2023/06/11 02:37:08;;;;;;;8.48;7.65;;;;;;;16.91;69.44;101560.56;4975002;28;20549;-73
2023/06/11 02:39:35;;;;;;;8.63;7.93;;;;;;;16.89;70.12;101564.91;4990921;28;20051;-74
2023/06/11 02:42:01;;;;;;;10.32;7.53;;;;;;;16.85;69.32;101556.28;4990928;28;20054;-74
2023/06/11 02:44:28;;;;;;;8.90;8.10;;;;;;;16.82;70.42;101566.03;4974098;28;20047;-73
2023/06/11 02:46:55;;;;;;;9.90;7.60;;;;;;;16.79;70.02;101555.47;4990712;28;20079;-74
2023/06/11 02:49:21;;;;;;;9.38;8.48;;;;;;;16.76;70.42;101567.91;4991796;28;20047;-74
2023/06/11 02:51:48;;;;;;;9.35;8.38;;;;;;;16.72;70.23;101570.03;4992214;28;20074;-73
2023/06/11 02:54:15;;;;;;;8.57;7.80;;;;;;;16.67;69.99;101568.72;4974412;28;20606;-73
2023/06/11 02:56:41;;;;;;;9.35;8.57;;;;;;;16.64;70.85;101571.56;4991298;28;20438;-74
2023/06/11 02:59:08;;;;;;;10.32;9.00;;;;;;;16.61;71.26;101569.78;4992488;28;20051;-73
2023/06/11 03:01:34;;;;;;;12.27;9.73;;;;;;;16.63;71.45;101562.00;4977138;28;20427;-73
2023/06/11 03:04:01;;;;;;;9.90;9.00;;;;;;;16.63;71.80;101560.06;4978136;28;20078;-73
2023/06/11 03:06:32;;;;;;;11.48;10.27;;;;;;;16.65;71.59;101565.00;4978171;28;20109;-73
2023/06/11 03:09:00;;;;;;;14.02;10.55;;;;;;;16.66;72.57;101563.78;4977494;28;20054;-73
2023/06/11 03:11:26;;;;;;;10.63;9.63;;;;;;;16.67;71.45;101562.59;4994920;28;20046;-73
2023/06/11 03:13:53;;;;;;;11.68;10.10;;;;;;;16.66;72.57;101569.16;4977678;28;20058;-73
2023/06/11 03:16:20;;;;;;;11.68;10.57;;;;;;;16.64;72.99;101575.00;4976532;28;20479;-73
2023/06/11 03:18:46;;;;;;;12.07;9.70;;;;;;;16.64;71.99;101576.97;4994957;28;20081;-74
2023/06/11 03:21:13;;;;;;;11.18;10.10;;;;;;;16.65;72.37;101584.56;4994752;28;20047;-73
2023/06/11 03:23:40;;;;;;;11.23;10.05;;;;;;;16.65;73.33;101573.06;4994941;28;20042;-74
2023/06/11 03:26:07;;;;;;;10.98;9.82;;;;;;;16.65;73.36;101571.13;4993286;28;20130;-73
2023/06/11 03:28:39;;;;;;;11.25;10.20;;;;;;;16.64;73.32;101571.56;4993698;28;20050;-74
2023/06/11 03:31:06;;;;;;;10.68;9.80;;;;;;;16.65;73.51;101575.75;4992643;28;20051;-74
2023/06/11 03:33:33;;;;;;;11.45;9.95;;;;;;;16.66;73.20;101574.56;4993241;28;20058;-74
2023/06/11 03:35:59;;;;;;;12.38;9.52;;;;;;;16.65;73.42;101581.13;4995198;28;20043;-73
2023/06/11 03:38:26;;;;;;;13.07;9.73;;;;;;;16.62;74.31;101582.03;4976536;28;20046;-74
2023/06/11 03:40:53;;;;;;;10.65;9.55;;;;;;;16.62;74.02;101582.75;4977213;28;20047;-73
2023/06/11 03:43:24;;;;;;;11.60;9.80;;;;;;;16.63;74.49;101580.81;4992568;28;20069;-73
2023/06/11 03:45:50;;;;;;;10.05;8.82;;;;;;;16.62;74.18;101587.41;4993197;28;20051;-73
2023/06/11 03:48:17;;;;;;;10.23;9.07;;;;;;;16.62;74.35;101587.41;4976803;28;20479;-74
2023/06/11 03:50:44;;;;;;;10.13;9.20;;;;;;;16.62;74.53;101587.41;4993230;28;20061;-73
2023/06/11 03:53:11;;;;;;;10.18;9.18;;;;;;;16.61;73.85;101585.91;4992978;28;20530;-73
2023/06/11 03:55:38;;;;;;;10.75;9.55;;;;;;;16.62;74.90;101587.41;4993071;28;20057;-73
2023/06/11 03:58:06;;;;;;;12.02;9.05;;;;;;;16.62;74.38;101592.78;4992757;28;20058;-73
2023/06/11 04:00:33;;;;;;;10.13;9.13;;;;;;;16.63;74.12;101586.94;4993831;28;20038;-73
2023/06/11 04:03:00;;;;;;;10.07;9.07;;;;;;;16.64;74.69;101585.75;4994734;28;20047;-73
2023/06/11 04:05:35;;;;;;;14.45;9.40;;;;;;;16.67;74.33;101590.22;4992657;28;20050;-73
2023/06/11 04:08:02;;;;;;;10.07;8.48;;;;;;;16.69;74.76;101595.13;4992853;28;20090;-74
2023/06/11 04:10:29;;;;;;;10.60;9.55;;;;;;;16.70;75.29;101595.88;4991631;28;20070;-73
2023/06/11 04:12:57;;;;;;;11.15;10.10;;;;;;;16.72;75.35;101591.53;4992940;28;20054;-73
2023/06/11 04:15:23;;;;;;;10.43;9.43;;;;;;;16.76;75.31;101583.28;4993252;28;20054;-73
2023/06/11 04:17:51;;;;;;;9.65;8.85;;;;;;;16.79;75.63;101588.47;4992773;28;20396;-73
2023/06/11 04:20:18;;;;;;;10.68;9.68;;;;;;;16.85;75.23;101586.59;4992273;28;20397;-74
2023/06/11 04:22:45;;;;;;;11.55;10.43;;;;;;;16.90;75.14;101593.28;4993848;28;20154;-73
2023/06/11 04:25:12;;;;;;;10.43;9.35;;;;;;;17.10;74.59;101598.03;4993622;28;20043;-73
2023/06/11 04:27:39;;;;;;;13.38;11.27;;;;;;;17.23;74.27;101585.78;4992683;28;20467;-73
2023/06/11 04:30:09;;;;;;;11.32;10.13;;;;;;;17.27;74.51;101585.59;4991933;28;20046;-73
2023/06/11 04:32:40;;;;;;;11.40;10.40;;;;;;;17.28;74.16;101587.81;4976028;28;20570;-73
2023/06/11 04:35:10;;;;;;;12.82;10.60;;;;;;;17.35;74.15;101592.09;4975830;28;20047;-73
2023/06/11 04:37:43;;;;;;;15.45;11.02;;;;;;;17.42;74.14;101591.72;4976367;28;20043;-73
2023/06/11 04:40:14;;;;;;;;;;;;;;;18.52;72.82;101590.97;4992670;28;20121;-74
2023/06/11 04:42:41;;;;;;;12.27;10.38;;;;;;;18.95;69.57;101591.91;4975465;28;20022;-73
2023/06/11 04:45:10;;;;;;;12.10;10.93;;;;;;;19.02;69.13;101592.72;4991988;28;20113;-74
2023/06/11 04:47:40;;;;;;;12.73;11.48;;;;;;;19.91;65.73;101596.78;4975509;28;20130;-74
2023/06/11 04:50:07;;;;;;;11.75;10.55;;;;;;;21.59;61.07;101595.13;4993121;28;20034;-74
2023/06/11 04:52:35;;;;;;;13.98;11.15;;;;;;;22.79;55.32;101592.91;4975760;28;20050;-73
2023/06/11 04:55:03;;;;;;;20.02;11.13;;;;;;;24.52;51.03;101602.00;4975942;28;20109;-74
2023/06/11 04:57:32;;;;;;;12.10;10.88;;;;;;;25.78;47.72;101598.94;4975452;28;20082;-74
2023/06/11 05:00:01;;;;;;;12.45;11.15;;;;;;;26.74;44.95;101600.38;4992213;28;20518;-74
2023/06/11 05:02:29;;;;;;;11.95;10.75;;;;;;;27.59;42.61;101602.50;4975006;28;20466;-74
2023/06/11 05:04:57;;;;;;;17.85;10.65;;;;;;;28.15;40.78;101605.09;4975938;28;20512;-74
2023/06/11 05:07:25;;;;;;;12.70;10.75;;;;;;;28.69;39.77;101599.75;4991092;28;20055;-74
2023/06/11 05:09:52;;;;;;;13.75;10.55;;;;;;;28.81;38.28;101595.38;4960230;28;20640;-74
2023/06/11 05:12:18;;;;;;;14.05;10.18;;;;;;;29.21;38.51;101596.28;4975458;28;20097;-74
2023/06/11 05:14:46;;;;;;;14.07;10.88;;;;;;;29.37;37.84;101596.25;4975509;28;20054;-74
2023/06/11 05:17:15;;;;;;;11.38;10.35;;;;;;;29.61;37.33;101603.88;4992752;28;20106;-74
2023/06/11 05:19:42;;;;;;;11.10;10.20;;;;;;;29.76;37.35;101603.13;4991593;28;20046;-74
2023/06/11 05:22:10;;;;;;;11.75;10.30;;;;;;;29.95;36.10;101599.94;4975284;28;20088;-74
2023/06/11 05:24:41;;;;;;;16.70;10.27;;;;;;;29.94;36.41;101599.22;4975738;28;20038;-74
2023/06/11 05:27:08;;;;;;;13.25;10.30;;;;;;;30.01;36.04;101592.97;4991385;28;20155;-74
2023/06/11 05:29:36;;;;;;;17.55;10.02;;;;;;;30.19;35.94;101594.53;4975222;28;20046;-74
2023/06/11 05:32:03;;;;;;;12.18;9.95;;;;;;;30.29;36.68;101593.94;4993024;28;20478;-74
2023/06/11 05:34:30;;;;;;;12.68;9.55;;;;;;;30.43;36.07;101595.81;4991525;28;20118;-74
2023/06/11 05:37:01;;;;;;;10.85;9.77;;;;;;;30.44;35.50;101605.53;4960216;28;20047;-75
2023/06/11 05:39:28;;;;;;;11.43;9.70;;;;;;;30.33;36.39;101608.00;4990990;28;20055;-73
2023/06/11 05:41:55;;;;;;;11.98;10.00;;;;;;;30.07;37.11;101606.47;4992717;28;20054;-74
2023/06/11 05:44:22;;;;;;;10.65;9.65;;;;;;;29.78;37.36;101603.28;4991205;28;20047;-73
2023/06/11 05:46:49;;;;;;;12.15;9.52;;;;;;;29.61;37.05;101600.41;4993277;28;20038;-74
2023/06/11 05:49:17;;;;;;;10.57;9.68;;;;;;;29.36;38.72;101605.75;4991425;28;20396;-74
2023/06/11 05:51:45;;;;;;;15.82;9.38;;;;;;;29.26;38.32;101599.38;4992653;28;20081;-74
2023/06/11 05:54:11;;;;;;;14.82;9.25;;;;;;;29.07;38.88;101602.53;4991376;28;20467;-74
2023/06/11 05:56:39;;;;;;;10.65;9.70;;;;;;;28.78;38.61;101604.69;4974677;28;20090;-74
2023/06/11 05:59:07;;;;;;;11.10;9.23;;;;;;;28.50;39.58;101609.03;4990832;28;20484;-74
2023/06/11 06:01:34;;;;;;;13.60;8.13;;;;;;;28.27;40.03;101607.53;4991379;28;20090;-73
2023/06/11 06:04:03;;;;;;;9.40;8.35;;;;;;;28.07;41.33;101607.06;4991543;28;20531;-74
2023/06/11 06:06:31;;;;;;;9.05;8.05;;;;;;;27.64;41.31;101607.06;4975120;28;20051;-73
2023/06/11 06:08:59;;;;;;;9.77;8.73;;;;;;;27.65;41.86;101611.25;4991016;28;20090;-74
2023/06/11 06:11:27;;;;;;;13.07;8.60;;;;;;;27.39;41.95;101617.66;4990266;28;20427;-73
2023/06/11 06:13:54;;;;;;;8.52;7.65;;;;;;;27.38;43.32;101613.47;4991269;28;20051;-74
2023/06/11 06:16:20;;;;;;;9.45;8.75;;;;;;;27.31;42.44;101620.34;4991175;28;20508;-74
2023/06/11 06:18:48;;;;;;;9.05;8.25;;;;;;;27.19;42.78;101624.63;4974794;28;20459;-74
2023/06/11 06:21:14;;;;;;;10.85;8.68;;;;;;;27.20;42.63;101624.06;4974435;28;20058;-74
2023/06/11 06:23:42;;;;;;;11.57;8.20;;;;;;;27.26;43.50;101617.75;4974342;28;20054;-74
2023/06/11 06:26:12;;;;;;;11.43;8.70;;;;;;;27.15;42.93;101621.50;4974061;28;20055;-74
2023/06/11 06:28:39;;;;;;;9.40;8.48;;;;;;;27.09;43.40;101624.38;4974705;28;20051;-74
2023/06/11 06:31:07;;;;;;;11.20;8.18;;;;;;;27.12;43.36;101625.31;4974423;28;20498;-74
2023/06/11 06:33:37;;;;;;;12.02;8.38;;;;;;;26.99;44.31;101625.38;4992249;28;20057;-74
2023/06/11 06:36:05;;;;;;;11.10;8.57;;;;;;;26.93;44.02;101620.00;4994445;28;20050;-74
2023/06/11 06:38:32;;;;;;;9.13;8.27;;;;;;;27.02;44.16;101625.03;4995230;28;20046;-74
2023/06/11 06:41:00;;;;;;;10.73;7.85;;;;;;;27.18;44.51;101623.16;4978208;28;20110;-74
2023/06/11 06:43:27;;;;;;;9.15;8.38;;;;;;;27.13;43.66;101630.25;4977508;28;20057;-75
2023/06/11 06:45:55;;;;;;;8.90;8.00;;;;;;;27.28;44.43;101629.59;4978221;28;20074;-74
2023/06/11 06:48:28;;;;;;;7.85;7.25;;;;;;;27.32;44.02;101637.47;4977423;28;20050;-75
2023/06/11 06:50:56;;;;;;;8.32;7.57;;;;;;;27.34;44.23;101637.66;4977738;28;20054;-76
2023/06/11 06:53:24;;;;;;;8.93;8.23;;;;;;;27.27;44.23;101636.34;4993813;28;20047;-76
2023/06/11 06:55:50;;;;;;;8.75;8.05;;;;;;;27.22;44.19;101631.75;4977775;28;20085;-75
2023/06/11 06:58:19;;;;;;;8.23;7.57;;;;;;;27.42;43.77;101632.97;4977584;28;20527;-75
2023/06/11 07:00:46;;;;;;;8.48;7.70;;;;;;;27.43;43.33;101634.44;4977498;28;20051;-76
2023/06/11 07:03:14;;;;;;;8.10;7.25;;;;;;;27.39;43.95;101634.06;4993290;28;20055;-74
2023/06/11 07:05:41;;;;;;;10.70;8.10;;;;;;;27.46;43.84;101634.13;4993748;28;20043;-74
2023/06/11 07:08:10;;;;;;;9.50;7.20;;;;;;;27.43;43.85;101639.91;4956699;28;20055;-77
2023/06/11 07:10:36;;;;;;;7.88;7.20;;;;;;;27.43;44.55;101637.91;4974080;28;20054;-76
2023/06/11 07:13:03;;;;;;;13.40;7.82;;;;;;;27.61;43.80;101641.69;4990755;28;20154;-75
2023/06/11 07:15:30;;;;;;;7.97;7.22;;;;;;;27.65;43.36;101638.63;4973887;28;20051;-76
2023/06/11 07:17:57;;;;;;;11.02;6.93;;;;;;;27.71;42.96;101633.72;4990163;28;20479;-77
2023/06/11 07:20:23;;;;;;;7.57;6.90;;;;;;;27.93;42.90;101635.84;4973664;28;20134;-75
2023/06/11 07:22:50;;;;;;;9.13;6.97;;;;;;;28.02;41.66;101637.34;4975090;28;20575;-77
2023/06/11 07:25:17;;;;;;;7.13;6.53;;;;;;;28.14;42.34;101643.97;4989853;28;20078;-76
2023/06/11 07:27:44;;;;;;;7.97;7.38;;;;;;;28.06;42.64;101643.19;4976387;28;20040;-77
2023/06/11 07:30:11;;;;;;;7.65;7.05;;;;;;;28.16;41.69;101642.16;4973795;28;20051;-77
2023/06/11 07:32:38;;;;;;;8.07;7.28;;;;;;;28.25;42.42;101645.66;4973331;28;20579;-77
2023/06/11 07:35:05;;;;;;;7.15;6.55;;;;;;;28.24;42.32;101650.41;4973692;28;20043;-75
2023/06/11 07:37:32;;;;;;;7.45;6.90;;;;;;;28.19;42.18;101643.78;4972764;28;20055;-77
2023/06/11 07:39:59;;;;;;;10.18;6.95;;;;;;;28.15;42.15;101643.41;4973528;28;20563;-75
2023/06/11 07:42:26;;;;;;;7.72;7.03;;;;;;;28.38;41.85;101640.06;4972923;28;20047;-75
2023/06/11 07:44:53;;;;;;;7.30;6.70;;;;;;;28.54;41.41;101630.59;4981582;28;20551;-76
2023/06/11 07:47:19;;;;;;;7.65;6.85;;;;;;;28.62;41.29;101641.56;4983511;28;20133;-76
2023/06/11 07:49:46;;;;;;;11.07;6.97;;;;;;;28.55;41.14;101640.28;4973215;28;20107;-76
2023/06/11 07:52:13;;;;;;;8.85;7.20;;;;;;;28.53;41.67;101638.06;4972651;28;20673;-75
2023/06/11 07:54:42;;;;;;;9.15;6.95;;;;;;;28.52;40.98;101641.34;4973301;28;20488;-75
2023/06/11 07:57:08;;;;;;;7.55;7.00;;;;;;;28.44;41.62;101633.13;4974702;28;20242;-72
2023/06/11 07:59:36;;;;;;;9.40;7.20;;;;;;;28.64;41.03;101636.28;4974280;28;20173;-76
2023/06/11 08:02:03;;;;;;;9.65;7.07;;;;;;;28.75;41.02;101636.66;4974882;28;20047;-74
2023/06/11 08:04:30;;;;;;;8.50;7.68;;;;;;;28.60;41.52;101635.91;4974606;28;20494;-76
2023/06/11 08:07:01;;;;;;;8.45;7.60;;;;;;;28.97;40.94;101634.50;4972737;28;20146;-75
2023/06/11 08:09:32;;;;;;;7.73;7.00;;;;;;;29.10;40.40;101637.06;4972971;28;20067;-74
2023/06/11 08:11:59;;;;;;;8.18;7.40;;;;;;;29.28;40.66;101640.69;4973548;28;20220;-75
2023/06/11 08:14:26;;;;;;;11.27;7.15;;;;;;;29.32;40.45;101633.56;4974043;28;20118;-75
2023/06/11 08:16:53;;;;;;;11.93;9.05;;;;;;;29.42;40.88;101637.22;4974843;28;20051;-75
2023/06/11 08:19:22;;;;;;;8.07;7.28;;;;;;;29.66;40.46;101641.38;4973764;28;20043;-75
2023/06/11 08:21:49;;;;;;;11.95;7.30;;;;;;;29.73;40.23;101637.16;4974223;28;20047;-75
2023/06/11 08:24:18;;;;;;;8.90;7.00;;;;;;;30.01;40.28;101639.63;4974146;28;20103;-77
2023/06/11 08:26:45;;;;;;;7.97;6.43;;;;;;;30.04;40.14;101635.75;4974109;28;20067;-78
2023/06/11 08:29:11;;;;;;;12.85;11.43;;;;;;;30.39;39.17;101628.44;4973783;28;20479;-79
2023/06/11 08:31:38;;;;;;;7.43;6.80;;;;;;;30.59;38.20;101632.19;4972719;28;20051;-79
2023/06/11 08:34:05;;;;;;;7.95;7.18;;;;;;;30.46;38.57;101626.94;4974288;28;20039;-79
2023/06/11 08:36:31;;;;;;;7.10;6.53;;;;;;;30.59;37.93;101628.72;4979603;28;20052;-79
2023/06/11 08:39:01;;;;;;;16.15;7.50;;;;;;;30.76;38.33;101626.03;4975197;28;20047;-79
2023/06/11 08:41:31;;;;;;;7.13;6.43;;;;;;;30.99;37.95;101621.06;4972763;28;20047;-78
2023/06/11 08:43:58;;;;;;;8.40;7.13;;;;;;;31.09;37.12;101626.69;4973480;28;20074;-78
2023/06/11 08:46:25;;;;;;;7.43;6.80;;;;;;;31.30;37.19;101629.78;4973985;28;20043;-78
2023/06/11 08:48:58;;;;;;;9.70;7.07;;;;;;;31.29;36.55;101627.59;4974060;28;20094;-78
2023/06/11 08:51:28;;;;;;;9.38;6.60;;;;;;;31.27;37.74;101622.66;4972868;28;20158;-78
2023/06/11 08:53:55;;;;;;;8.88;6.60;;;;;;;31.42;36.58;101621.78;4974373;28;20051;-79
2023/06/11 08:56:22;;;;;;;7.35;6.63;;;;;;;31.38;36.80;101622.19;4973165;28;20139;-78
2023/06/11 08:58:49;;;;;;;7.88;7.07;;;;;;;31.37;37.10;101617.25;4973948;28;20759;-78
2023/06/11 09:01:16;;;;;;;7.30;6.70;;;;;;;31.29;37.06;101617.34;4973344;28;20445;-79
2023/06/11 09:03:43;;;;;;;7.85;6.78;;;;;;;31.44;38.20;101628.19;4971286;28;20630;-77
2023/06/11 09:06:10;;;;;;;6.78;6.32;;;;;;;31.49;36.67;101613.47;4972042;28;20071;-75
2023/06/11 09:08:36;;;;;;;7.00;6.50;;;;;;;31.82;36.18;101616.78;4971819;28;20583;-77
2023/06/11 09:11:05;;;;;;;7.00;6.60;;;;;;;31.92;35.86;101618.88;4974470;28;20040;-77
2023/06/11 09:13:32;;;;;;;9.63;7.07;;;;;;;31.72;36.04;101618.72;4974059;28;20051;-77
2023/06/11 09:15:59;;;;;;;9.27;6.93;;;;;;;31.82;36.18;101619.53;4973757;28;20530;-76
2023/06/11 09:18:26;;;;;;;7.55;6.75;;;;;;;32.13;35.40;101616.38;4972698;28;20122;-76
2023/06/11 09:20:56;;;;;;;7.13;6.53;;;;;;;32.15;35.51;101622.75;4973348;28;20110;-76
2023/06/11 09:23:33;;;;;;;7.97;6.47;;;;;;;32.13;35.04;101613.63;4973009;28;20107;-75
2023/06/11 09:26:01;;;;;;;7.30;6.60;;;;;;;32.16;36.05;101621.47;4973695;28;20047;-77
2023/06/11 09:28:32;;;;;;;7.65;6.50;;;;;;;32.22;35.77;101620.50;4971685;28;20558;-76
2023/06/11 09:30:59;;;;;;;7.72;6.55;;;;;;;32.44;35.38;101611.91;4973505;28;20047;-76
2023/06/11 09:33:31;;;;;;;8.32;6.70;;;;;;;32.62;34.67;101620.81;4986808;28;20048;-76
2023/06/11 09:35:58;;;;;;;7.50;6.75;;;;;;;32.87;35.68;101609.59;4973100;28;20043;-76
2023/06/11 09:38:25;;;;;;;6.78;6.28;;;;;;;32.93;34.12;101615.56;4972782;28;20386;-75
2023/06/11 09:40:54;;;;;;;6.50;6.00;;;;;;;32.96;33.24;101610.91;4971783;28;20526;-76
2023/06/11 09:43:22;;;;;;;6.88;6.00;;;;;;;32.74;33.96;101605.19;4973105;28;20059;-75
2023/06/11 09:45:54;;;;;;;6.72;6.13;;;;;;;32.67;35.11;101608.81;4972730;28;20056;-76
2023/06/11 09:48:22;;;;;;;6.30;5.90;;;;;;;32.66;34.16;101612.84;4972785;28;20598;-76
2023/06/11 09:50:50;;;;;;;6.15;5.65;;;;;;;32.66;34.01;101601.84;4973433;28;20501;-75
2023/06/11 09:53:21;;;;;;;6.05;5.45;;;;;;;32.90;33.16;101613.22;4971556;28;20086;-76
2023/06/11 09:55:50;;;;;;;6.03;5.40;;;;;;;32.74;33.39;101607.22;4972989;28;20043;-77
2023/06/11 09:58:36;;;;;;;5.57;5.28;;;;;;;32.84;32.92;101613.50;4973154;28;20122;-78
2023/06/11 10:01:03;;;;;;;8.45;5.45;;;;;;;32.94;32.59;101608.00;4973148;28;20126;-78
2023/06/11 10:03:33;;;;;;;8.05;5.60;;;;;;;33.20;32.19;101606.44;4972310;28;20118;-78
2023/06/11 10:06:04;;;;;;;6.53;5.53;;;;;;;33.41;31.91;101607.34;4973423;28;20082;-80
2023/06/11 10:08:34;;;;;;;5.80;5.40;;;;;;;33.30;32.10;101605.16;4984446;28;20091;-78
2023/06/11 10:11:02;;;;;;;6.60;5.50;;;;;;;33.54;32.04;101608.22;4978384;28;20051;-76
2023/06/11 10:13:31;;;;;;;5.63;5.15;;;;;;;33.39;31.42;101606.47;4995782;28;20534;-77
2023/06/11 10:16:07;;;;;;;6.35;5.43;;;;;;;33.17;31.97;101608.34;4995467;28;20515;-80
2023/06/11 10:18:34;;;;;;;7.30;6.18;;;;;;;33.34;32.40;101610.25;4996267;28;20078;-76
2023/06/11 10:21:02;;;;;;;5.43;5.05;;;;;;;33.49;31.43;101609.97;4980843;28;20046;-75
2023/06/11 10:23:42;;;;;;;7.63;5.70;;;;;;;33.59;31.41;101609.97;4977624;28;20672;-77
2023/06/11 10:26:09;;;;;;;9.20;6.23;;;;;;;33.62;31.58;101604.00;4977763;28;20050;-77
2023/06/11 10:28:37;;;;;;;6.38;5.88;;;;;;;33.72;30.79;101612.25;4995787;28;20333;-76
2023/06/11 10:31:05;;;;;;;5.78;5.38;;;;;;;33.78;31.12;101612.69;4994183;28;20609;-75
2023/06/11 10:33:40;;;;;;;6.65;5.93;;;;;;;33.98;30.76;101608.63;4995678;28;20046;-74
2023/06/11 10:36:07;;;;;;;6.50;6.00;;;;;;;33.93;30.87;101612.41;4995256;28;20170;-74
2023/06/11 10:38:38;;;;;;;7.30;5.72;;;;;;;34.31;31.36;101606.06;4995462;28;20078;-75
2023/06/11 10:41:04;;;;;;;6.32;5.82;;;;;;;34.31;29.47;101603.28;4995397;28;20490;-76
2023/06/11 10:43:34;;;;;;;5.97;5.45;;;;;;;34.29;29.65;101602.41;4977563;28;20058;-78
2023/06/11 10:46:03;;;;;;;5.93;5.45;;;;;;;34.30;29.87;101612.19;4995150;28;20047;-77
2023/06/11 10:48:30;;;;;;;7.35;5.00;;;;;;;34.11;29.17;101612.94;4995035;28;20055;-78
2023/06/11 10:51:07;;;;;;;15.85;5.82;;;;;;;34.28;28.94;101607.22;4995574;28;20097;-76
2023/06/11 10:53:40;;;;;;;8.98;5.38;;;;;;;34.18;28.58;101612.03;4996556;28;20050;-76
2023/06/11 10:56:11;;;;;;;5.47;4.90;;;;;;;34.18;28.97;101608.53;4996705;28;20452;-77
2023/06/11 10:58:38;;;;;;;5.70;5.20;;;;;;;33.95;29.49;101604.25;4994728;28;20082;-78
2023/06/11 11:01:08;;;;;;;7.53;4.82;;;;;;;34.18;28.57;101603.03;4976640;28;20055;-78
2023/06/11 11:03:38;;;;;;;5.53;4.95;;;;;;;34.43;29.35;101606.13;4999056;28;20546;-78
2023/06/11 11:06:05;;;;;;;10.77;5.13;;;;;;;34.55;28.60;101595.91;5002859;28;20051;-78
2023/06/11 11:08:31;;;;;;;5.70;5.20;;;;;;;34.56;29.15;101591.09;5005053;28;20508;-77
2023/06/11 11:11:02;;;;;;;5.63;5.18;;;;;;;34.54;28.42;101599.25;5003846;28;20570;-77
2023/06/11 11:13:29;;;;;;;5.50;5.10;;;;;;;34.69;28.50;101591.31;5000803;28;20098;-78
2023/06/11 11:15:58;;;;;;;6.38;5.03;;;;;;;34.78;27.51;101595.34;5003842;28;20053;-77
2023/06/11 11:18:25;;;;;;;5.40;5.00;;;;;;;34.69;28.15;101594.09;5004834;28;20578;-78
2023/06/11 11:20:53;;;;;;;5.38;4.90;;;;;;;34.68;27.71;101591.91;4994583;28;20047;-78
2023/06/11 11:23:24;;;;;;;5.00;4.70;;;;;;;34.67;27.27;101580.13;4976647;28;20105;-77
2023/06/11 11:25:51;;;;;;;5.07;4.78;;;;;;;34.83;27.10;101585.28;4995120;28;20050;-78